createdAt,value
2018-05-14T00:00:11.223Z,13.80
2018-05-14T00:02:38.253Z,13.80
2018-05-14T00:05:04.577Z,13.80
2018-05-14T00:07:32.348Z,13.60
2018-05-14T00:09:58.696Z,13.60
2018-05-14T00:12:24.993Z,13.50
2018-05-14T00:14:51.320Z,13.50
2018-05-14T00:17:17.740Z,13.40
2018-05-14T00:19:44.089Z,13.40
2018-05-14T00:22:10.420Z,13.20
2018-05-14T00:24:36.728Z,13.20
2018-05-14T00:27:03.114Z,13.10
2018-05-14T00:29:29.441Z,13.00
2018-05-14T00:31:56.524Z,12.90
2018-05-14T00:34:23.560Z,12.80
2018-05-14T00:36:49.888Z,12.80
2018-05-14T00:39:16.935Z,12.70
2018-05-14T00:41:43.986Z,12.70
2018-05-14T00:44:10.337Z,12.60
2018-05-14T00:46:36.649Z,12.60
2018-05-14T00:49:03.732Z,12.60
2018-05-14T00:51:30.052Z,12.60
2018-05-14T00:53:56.396Z,12.60
2018-05-14T00:56:22.708Z,12.60
2018-05-14T00:58:49.027Z,12.60
2018-05-14T01:01:15.355Z,12.50
2018-05-14T01:03:42.423Z,12.50
2018-05-14T01:06:09.455Z,12.50
2018-05-14T01:08:35.775Z,12.50
2018-05-14T01:11:02.119Z,12.40
2018-05-14T01:13:28.436Z,12.40
2018-05-14T01:15:55.498Z,12.40
2018-05-14T01:18:22.558Z,12.40
2018-05-14T01:20:48.956Z,12.40
2018-05-14T01:23:15.243Z,12.40
2018-05-14T01:25:41.537Z,12.40
2018-05-14T01:28:09.308Z,12.30
2018-05-14T01:30:36.368Z,12.30
2018-05-14T01:33:04.686Z,12.30
2018-05-14T01:35:30.956Z,12.30
2018-05-14T01:37:57.236Z,12.30
2018-05-14T01:40:23.839Z,12.30
2018-05-14T01:42:50.214Z,12.30
2018-05-14T01:45:16.520Z,12.30
2018-05-14T01:47:43.562Z,12.30
2018-05-14T01:50:10.667Z,12.20
2018-05-14T01:52:37.007Z,12.20
2018-05-14T01:55:03.357Z,12.20
2018-05-14T01:57:29.651Z,12.30
2018-05-14T01:59:56.005Z,12.30
2018-05-14T02:08:11.268Z,12.20
2018-05-14T02:10:37.577Z,12.30
2018-05-14T02:13:04.646Z,12.30
2018-05-14T02:15:30.966Z,12.30
2018-05-14T02:17:57.292Z,12.40
2018-05-14T02:20:24.393Z,12.30
2018-05-14T02:22:50.775Z,12.30
2018-05-14T02:25:17.090Z,12.40
2018-05-14T02:27:43.380Z,12.30
2018-05-14T02:30:09.672Z,12.40
2018-05-14T02:32:36.054Z,12.40
2018-05-14T02:35:03.154Z,12.40
2018-05-14T02:37:30.196Z,12.30
2018-05-14T02:40:02.345Z,12.30
2018-05-14T02:42:29.380Z,12.30
2018-05-14T02:44:55.709Z,12.30
2018-05-14T02:47:22.041Z,12.30
2018-05-14T02:49:48.353Z,12.30
2018-05-14T02:52:14.675Z,12.30
2018-05-14T02:54:41.079Z,12.30
2018-05-14T02:57:08.107Z,12.30
2018-05-14T02:59:34.406Z,12.30
2018-05-14T03:02:00.734Z,12.30
2018-05-14T03:04:28.440Z,12.30
2018-05-14T03:06:54.715Z,12.20
2018-05-14T03:09:21.013Z,12.20
2018-05-14T03:11:47.383Z,12.20
2018-05-14T03:14:13.737Z,12.20
2018-05-14T03:16:40.048Z,12.20
2018-05-14T03:19:06.353Z,12.10
2018-05-14T03:21:32.671Z,12.20
2018-05-14T03:23:59.695Z,12.20
2018-05-14T03:26:26.035Z,12.20
2018-05-14T03:28:52.487Z,12.20
2018-05-14T03:31:18.769Z,12.20
2018-05-14T03:33:45.412Z,12.30
2018-05-14T03:36:11.733Z,12.30
2018-05-14T03:38:38.013Z,12.30
2018-05-14T03:41:05.054Z,12.30
2018-05-14T03:43:32.112Z,12.40
2018-05-14T03:45:59.161Z,12.40
2018-05-14T03:48:25.469Z,12.40
2018-05-14T03:50:52.881Z,12.40
2018-05-14T03:53:19.160Z,12.40
2018-05-14T03:59:05.995Z,12.30
2018-05-14T04:01:44.646Z,12.30
2018-05-14T04:04:24.816Z,12.30
2018-05-14T04:06:51.131Z,12.20
2018-05-14T04:09:18.149Z,12.20
2018-05-14T04:11:45.340Z,12.20
2018-05-14T04:14:11.669Z,12.20
2018-05-14T04:16:38.077Z,12.20
2018-05-14T04:19:04.349Z,12.20
2018-05-14T04:21:30.695Z,12.20
2018-05-14T04:23:56.996Z,12.20
2018-05-14T04:26:23.314Z,12.20
2018-05-14T04:28:54.278Z,12.20
2018-05-14T04:31:20.645Z,12.20
2018-05-14T04:33:50.852Z,12.20
2018-05-14T04:36:17.218Z,12.20
2018-05-14T04:38:43.514Z,12.30
2018-05-14T04:41:09.824Z,12.30
2018-05-14T04:43:36.111Z,12.30
2018-05-14T04:46:02.438Z,12.30
2018-05-14T04:48:28.777Z,12.30
2018-05-14T04:50:55.076Z,12.30
2018-05-14T04:53:21.439Z,12.30
2018-05-14T04:55:47.767Z,12.30
2018-05-14T04:58:14.076Z,12.30
2018-05-14T05:00:42.458Z,12.30
2018-05-14T05:03:08.744Z,12.30
2018-05-14T05:05:35.793Z,12.30
2018-05-14T05:08:02.120Z,12.30
2018-05-14T05:10:29.287Z,12.30
2018-05-14T05:12:55.497Z,12.30
2018-05-14T05:15:21.831Z,12.30
2018-05-14T05:17:48.864Z,12.30
2018-05-14T05:20:15.932Z,12.30
2018-05-14T05:22:42.992Z,12.30
2018-05-14T05:25:09.327Z,12.30
2018-05-14T05:27:35.609Z,12.30
2018-05-14T05:30:01.916Z,12.30
2018-05-14T05:32:28.369Z,12.40
2018-05-14T05:34:55.563Z,12.40
2018-05-14T05:37:22.146Z,12.40
2018-05-14T05:39:48.780Z,12.40
2018-05-14T05:42:15.072Z,12.40
2018-05-14T05:44:42.103Z,12.50
2018-05-14T05:47:08.420Z,12.50
2018-05-14T05:49:34.717Z,12.50
2018-05-14T05:52:01.025Z,12.40
2018-05-14T05:54:27.308Z,12.50
2018-05-14T05:56:53.608Z,12.60
2018-05-14T05:59:19.903Z,12.60
2018-05-14T06:01:46.973Z,12.70
2018-05-14T06:04:13.277Z,12.70
2018-05-14T06:06:40.316Z,12.80
2018-05-14T06:09:06.783Z,12.80
2018-05-14T06:11:33.161Z,12.90
2018-05-14T06:13:59.464Z,12.90
2018-05-14T06:16:25.782Z,12.90
2018-05-14T06:18:52.093Z,13.00
2018-05-14T06:21:18.675Z,13.00
2018-05-14T06:23:45.723Z,13.00
2018-05-14T06:26:12.051Z,13.00
2018-05-14T06:28:38.378Z,13.10
2018-05-14T06:31:04.702Z,13.10
2018-05-14T06:33:31.023Z,13.10
2018-05-14T06:35:58.045Z,13.00
2018-05-14T06:38:25.103Z,13.10
2018-05-14T06:40:52.145Z,13.00
2018-05-14T06:43:19.212Z,13.00
2018-05-14T06:45:46.304Z,13.00
2018-05-14T06:48:13.172Z,13.00
2018-05-14T06:50:39.848Z,13.00
2018-05-14T06:53:06.151Z,13.00
2018-05-14T06:55:32.527Z,13.00
2018-05-14T06:57:58.792Z,13.10
2018-05-14T07:00:25.077Z,13.10
2018-05-14T07:02:51.410Z,13.20
2018-05-14T07:05:17.704Z,13.30
2018-05-14T07:07:45.505Z,13.30
2018-05-14T07:10:11.821Z,13.30
2018-05-14T07:12:38.882Z,13.40
2018-05-14T07:15:05.191Z,13.40
2018-05-14T07:17:32.246Z,13.40
2018-05-14T07:19:59.300Z,13.50
2018-05-14T07:22:26.362Z,13.60
2018-05-14T07:24:52.666Z,13.60
2018-05-14T07:27:19.708Z,13.60
2018-05-14T07:29:46.021Z,13.60
2018-05-14T07:32:12.314Z,13.70
2018-05-14T07:34:38.607Z,13.70
2018-05-14T07:37:05.661Z,13.80
2018-05-14T07:39:32.695Z,13.80
2018-05-14T07:41:58.993Z,13.80
2018-05-14T07:44:25.331Z,13.90
2018-05-14T07:46:51.667Z,13.90
2018-05-14T07:49:17.941Z,14.00
2018-05-14T07:51:44.972Z,14.10
2018-05-14T07:54:11.311Z,14.10
2018-05-14T07:56:37.629Z,14.30
2018-05-14T07:59:03.939Z,14.30
2018-05-14T08:01:30.271Z,14.40
2018-05-14T08:03:56.603Z,14.50
2018-05-14T08:06:22.903Z,14.50
2018-05-14T08:08:49.209Z,14.50
2018-05-14T08:11:15.528Z,14.50
2018-05-14T08:13:41.843Z,14.60
2018-05-14T08:16:08.166Z,14.60
2018-05-14T08:18:34.492Z,14.60
2018-05-14T08:21:04.690Z,14.70
2018-05-14T08:23:35.844Z,14.70
2018-05-14T08:26:02.157Z,14.90
2018-05-14T08:28:28.560Z,14.90
2018-05-14T08:30:54.868Z,15.00
2018-05-14T08:33:21.275Z,15.00
2018-05-14T08:35:47.612Z,15.10
2018-05-14T08:38:13.946Z,15.00
2018-05-14T08:40:40.271Z,15.10
2018-05-14T08:43:06.608Z,15.10
2018-05-14T08:45:32.974Z,15.20
2018-05-14T08:47:59.628Z,15.30
2018-05-14T08:50:26.783Z,15.70
2018-05-14T08:52:53.231Z,15.70
2018-05-14T08:55:19.616Z,15.90
2018-05-14T08:57:46.166Z,16.00
2018-05-14T09:00:12.651Z,16.20
2018-05-14T09:02:38.963Z,16.50
2018-05-14T09:05:05.369Z,16.80
2018-05-14T09:07:31.671Z,17.00
2018-05-14T09:09:58.057Z,17.20
2018-05-14T09:12:25.253Z,17.50
2018-05-14T09:14:51.584Z,17.50
2018-05-14T09:17:17.894Z,17.60
2018-05-14T09:19:44.315Z,17.60
2018-05-14T09:22:10.669Z,17.60
2018-05-14T09:24:38.020Z,17.50
2018-05-14T09:27:04.573Z,17.40
2018-05-14T09:29:30.917Z,17.40
2018-05-14T09:31:57.278Z,17.40
2018-05-14T09:34:23.572Z,17.50
2018-05-14T09:36:49.879Z,17.80
2018-05-14T09:39:16.364Z,18.20
2018-05-14T09:41:42.743Z,18.70
2018-05-14T09:44:09.052Z,18.90
2018-05-14T09:46:36.447Z,19.00
2018-05-14T09:49:02.849Z,19.00
2018-05-14T09:51:29.375Z,19.00
2018-05-14T09:53:56.148Z,18.90
2018-05-14T09:56:22.500Z,18.90
2018-05-14T09:58:48.930Z,18.90
2018-05-14T10:01:15.320Z,18.80
2018-05-14T10:03:42.503Z,18.80
2018-05-14T10:06:08.921Z,18.80
2018-05-14T10:08:35.575Z,18.80
2018-05-14T10:11:02.122Z,18.90
2018-05-14T10:13:30.120Z,19.00
2018-05-14T10:15:56.507Z,19.00
2018-05-14T10:18:26.859Z,19.10
2018-05-14T10:20:53.398Z,19.30
2018-05-14T10:23:19.978Z,19.60
2018-05-14T10:25:46.429Z,19.70
2018-05-14T10:28:12.806Z,20.00
2018-05-14T10:30:39.188Z,20.20
2018-05-14T10:33:05.597Z,20.60
2018-05-14T10:35:32.176Z,20.90
2018-05-14T10:37:58.566Z,21.10
2018-05-14T10:40:24.906Z,21.20
2018-05-14T10:42:51.364Z,21.20
2018-05-14T10:45:18.501Z,21.40
2018-05-14T10:47:44.957Z,21.40
2018-05-14T10:50:11.360Z,21.50
2018-05-14T10:52:37.964Z,21.50
2018-05-14T10:55:04.367Z,21.60
2018-05-14T10:57:30.720Z,21.80
2018-05-14T10:59:57.093Z,21.90
2018-05-14T11:02:23.585Z,21.80
2018-05-14T11:04:49.963Z,21.80
2018-05-14T11:07:17.166Z,21.60
2018-05-14T11:09:51.393Z,21.30
2018-05-14T11:12:17.730Z,21.30
2018-05-14T11:14:44.121Z,21.40
2018-05-14T11:17:10.430Z,21.50
2018-05-14T11:19:36.763Z,21.30
2018-05-14T11:22:03.843Z,20.60
2018-05-14T11:24:30.379Z,20.70
2018-05-14T11:26:56.672Z,20.40
2018-05-14T11:29:22.942Z,20.10
2018-05-14T11:31:49.427Z,19.90
2018-05-14T11:34:15.767Z,19.60
2018-05-14T11:36:42.068Z,19.50
2018-05-14T11:39:08.404Z,19.20
2018-05-14T11:41:34.782Z,19.00
2018-05-14T11:44:01.881Z,18.70
2018-05-14T11:46:28.245Z,18.60
2018-05-14T11:48:58.596Z,18.60
2018-05-14T11:51:24.914Z,18.50
2018-05-14T11:53:51.512Z,18.50
2018-05-14T11:56:17.833Z,18.40
2018-05-14T11:58:44.213Z,18.20
2018-05-14T12:01:10.592Z,18.10
2018-05-14T12:03:36.912Z,18.00
2018-05-14T12:06:03.248Z,18.00
2018-05-14T12:08:30.351Z,17.90
2018-05-14T12:10:56.661Z,17.90
2018-05-14T12:13:23.033Z,17.80
2018-05-14T12:15:49.361Z,17.80
2018-05-14T12:18:17.129Z,17.70
2018-05-14T12:20:44.229Z,17.60
2018-05-14T12:23:10.637Z,17.60
2018-05-14T12:25:37.164Z,17.60
2018-05-14T12:28:03.403Z,17.60
2018-05-14T12:30:29.771Z,17.50
2018-05-14T12:32:56.277Z,17.50
2018-05-14T12:35:22.605Z,17.50
2018-05-14T12:37:49.027Z,17.50
2018-05-14T12:40:15.401Z,17.50
2018-05-14T12:42:41.869Z,17.50
2018-05-14T12:45:09.715Z,17.60
2018-05-14T12:47:36.340Z,17.60
2018-05-14T12:50:02.745Z,17.70
2018-05-14T12:52:29.145Z,17.80
2018-05-14T12:54:55.460Z,17.70
2018-05-14T12:57:21.928Z,17.80
2018-05-14T12:59:48.227Z,17.80
2018-05-14T13:02:14.535Z,17.90
2018-05-14T13:04:40.918Z,17.90
2018-05-14T13:07:07.965Z,18.20
2018-05-14T13:09:34.301Z,18.10
2018-05-14T13:12:01.423Z,18.50
2018-05-14T13:14:27.806Z,18.50
2018-05-14T13:16:54.144Z,18.60
2018-05-14T13:19:20.484Z,18.70
2018-05-14T13:21:46.904Z,18.70
2018-05-14T13:24:13.267Z,18.80
2018-05-14T13:26:39.627Z,18.80
2018-05-14T13:29:06.030Z,18.80
2018-05-14T13:31:32.372Z,18.80
2018-05-14T13:33:58.706Z,18.80
2018-05-14T13:36:25.011Z,18.70
2018-05-14T13:38:51.397Z,18.70
2018-05-14T13:41:18.528Z,18.70
2018-05-14T13:43:44.868Z,18.70
2018-05-14T13:46:11.237Z,18.60
2018-05-14T13:48:38.313Z,18.50
2018-05-14T13:51:04.771Z,18.50
2018-05-14T13:53:31.814Z,18.50
2018-05-14T13:55:58.179Z,18.50
2018-05-14T13:58:25.240Z,18.50
2018-05-14T14:00:51.576Z,18.50
2018-05-14T14:03:18.669Z,18.30
2018-05-14T14:05:45.012Z,18.30
2018-05-14T14:08:11.376Z,18.20
2018-05-14T14:10:37.804Z,18.10
2018-05-14T14:13:05.083Z,17.90
2018-05-14T14:15:31.520Z,17.90
2018-05-14T14:17:57.921Z,17.70
2018-05-14T14:20:24.381Z,17.60
2018-05-14T14:22:50.876Z,17.60
2018-05-14T14:25:17.292Z,17.50
2018-05-14T14:27:43.635Z,17.50
2018-05-14T14:30:09.964Z,17.50
2018-05-14T14:32:36.303Z,17.50
2018-05-14T14:35:02.615Z,17.50
2018-05-14T14:37:28.927Z,17.40
2018-05-14T14:39:55.934Z,17.30
2018-05-14T14:42:22.234Z,17.30
2018-05-14T14:44:48.527Z,17.20
2018-05-14T14:47:18.724Z,17.10
2018-05-14T14:49:45.053Z,17.00
2018-05-14T14:52:11.356Z,16.90
2018-05-14T14:54:37.633Z,16.80
2018-05-14T14:57:04.695Z,16.60
2018-05-14T14:59:31.714Z,16.50
2018-05-14T15:01:58.002Z,16.50
2018-05-14T15:04:24.286Z,16.40
2018-05-14T15:06:51.389Z,16.40
2018-05-14T15:09:17.680Z,16.40
2018-05-14T15:11:44.731Z,16.30
2018-05-14T15:14:11.049Z,16.30
2018-05-14T15:16:37.366Z,16.30
2018-05-14T15:19:04.436Z,16.20
2018-05-14T15:21:31.549Z,16.10
2018-05-14T15:23:57.841Z,16.00
2018-05-14T15:26:24.195Z,16.00
2018-05-14T15:28:56.538Z,16.00
2018-05-14T15:31:22.887Z,16.00
2018-05-14T15:33:49.298Z,16.00
2018-05-14T15:36:15.631Z,15.90
2018-05-14T15:38:41.940Z,15.90
2018-05-14T15:41:08.244Z,15.80
2018-05-14T15:43:34.581Z,15.90
2018-05-14T15:46:00.896Z,15.90
2018-05-14T15:48:27.184Z,16.00
2018-05-14T15:50:54.236Z,16.00
2018-05-14T15:53:21.254Z,16.00
2018-05-14T15:55:47.596Z,16.00
2018-05-14T15:58:14.655Z,16.00
2018-05-14T16:00:41.702Z,15.90
2018-05-14T16:03:08.725Z,16.00
2018-05-14T16:05:35.344Z,15.90
2018-05-14T16:08:01.839Z,16.00
2018-05-14T16:10:28.190Z,16.00
2018-05-14T16:12:54.504Z,15.90
2018-05-14T16:15:20.796Z,15.90
2018-05-14T16:17:47.871Z,15.80
2018-05-14T16:20:14.224Z,15.80
2018-05-14T16:22:40.552Z,15.90
2018-05-14T16:25:06.947Z,15.80
2018-05-14T16:27:33.285Z,15.90
2018-05-14T16:29:59.627Z,15.90
2018-05-14T16:32:26.745Z,15.90
2018-05-14T16:34:53.218Z,15.90
2018-05-14T16:37:20.269Z,15.90
2018-05-14T16:39:50.411Z,15.90
2018-05-14T16:42:16.852Z,15.90
2018-05-14T16:44:43.224Z,16.00
2018-05-14T16:47:09.561Z,16.00
2018-05-14T16:49:35.895Z,16.10
2018-05-14T16:52:02.252Z,16.10
2018-05-14T16:54:29.299Z,16.00
2018-05-14T16:56:55.637Z,16.00
2018-05-14T16:59:21.983Z,16.10
2018-05-14T17:01:52.167Z,16.10
2018-05-14T17:04:18.533Z,16.10
2018-05-14T17:06:44.852Z,16.10
2018-05-14T17:09:11.944Z,16.10
2018-05-14T17:11:38.301Z,16.10
2018-05-14T17:14:04.635Z,16.10
2018-05-14T17:16:30.941Z,16.00
2018-05-14T17:18:57.293Z,16.00
2018-05-14T17:21:23.617Z,16.00
2018-05-14T17:23:49.976Z,16.00
2018-05-14T17:26:20.136Z,15.90
2018-05-14T17:28:46.467Z,15.90
2018-05-14T17:31:12.847Z,15.90
2018-05-14T17:33:39.238Z,15.90
2018-05-14T17:36:05.564Z,15.90
2018-05-14T17:38:31.935Z,15.90
2018-05-14T17:40:58.429Z,15.90
2018-05-14T17:43:24.805Z,15.90
2018-05-14T17:45:51.152Z,15.90
2018-05-14T17:48:17.551Z,15.80
2018-05-14T17:50:43.890Z,15.80
2018-05-14T17:53:10.265Z,15.80
2018-05-14T17:55:36.703Z,15.70
2018-05-14T17:58:03.799Z,15.60
2018-05-14T18:00:30.206Z,15.60
2018-05-14T18:02:58.567Z,15.50
2018-05-14T18:05:25.656Z,15.40
2018-05-14T18:07:52.066Z,15.40
2018-05-14T18:10:19.139Z,15.30
2018-05-14T18:12:45.431Z,15.30
2018-05-14T18:15:11.767Z,15.30
2018-05-14T18:17:38.187Z,15.20
2018-05-14T18:20:11.297Z,15.10
2018-05-14T18:22:39.654Z,15.10
2018-05-14T18:25:12.109Z,15.10
2018-05-14T18:27:38.518Z,15.10
2018-05-14T18:30:10.983Z,15.00
2018-05-14T18:32:39.085Z,15.00
2018-05-14T18:35:11.744Z,15.00
2018-05-14T18:37:38.086Z,15.00
2018-05-14T18:40:04.449Z,15.00
2018-05-14T18:42:30.795Z,14.90
2018-05-14T18:44:57.902Z,14.80
2018-05-14T18:47:24.411Z,14.80
2018-05-14T18:49:50.731Z,14.80
2018-05-14T18:52:17.110Z,14.80
2018-05-14T18:54:44.225Z,14.80
2018-05-14T18:57:10.591Z,14.70
2018-05-14T18:59:36.923Z,14.80
2018-05-14T19:02:03.459Z,14.70
2018-05-14T19:04:29.740Z,14.70
2018-05-14T19:06:56.143Z,14.70
2018-05-14T19:09:22.513Z,14.70
2018-05-14T19:11:50.682Z,14.70
2018-05-14T19:14:17.070Z,14.60
2018-05-14T19:19:39.119Z,14.60
2018-05-14T19:22:05.440Z,14.60
2018-05-14T19:24:31.823Z,14.50
2018-05-14T19:26:58.228Z,14.50
2018-05-14T19:29:30.762Z,14.40
2018-05-14T19:31:57.032Z,14.40
2018-05-14T19:34:29.400Z,14.40
2018-05-14T19:36:55.708Z,14.40
2018-05-14T19:39:28.044Z,14.40
2018-05-14T19:42:00.763Z,14.30
2018-05-14T19:44:30.799Z,14.30
2018-05-14T19:46:57.116Z,14.40
2018-05-14T19:49:23.444Z,14.40
2018-05-14T19:51:49.793Z,14.40
2018-05-14T19:54:16.128Z,14.40
2018-05-14T19:56:42.567Z,14.40
2018-05-14T19:59:08.896Z,14.40
2018-05-14T20:01:35.287Z,14.40
2018-05-14T20:04:01.663Z,14.40
2018-05-14T20:06:28.103Z,14.40
2018-05-14T20:08:54.450Z,14.40
2018-05-14T20:11:20.829Z,14.40
2018-05-14T20:13:47.167Z,14.40
2018-05-14T20:16:13.533Z,14.40
2018-05-14T20:18:39.856Z,14.40
2018-05-14T20:21:06.148Z,14.40
2018-05-14T20:23:33.332Z,14.30
2018-05-14T20:25:59.629Z,14.30
2018-05-14T20:28:25.947Z,14.30
2018-05-14T20:30:53.015Z,14.10
2018-05-14T20:33:19.420Z,14.10
2018-05-14T20:35:45.792Z,14.10
2018-05-14T20:38:12.121Z,14.00
2018-05-14T20:40:38.493Z,14.00
2018-05-14T20:43:04.820Z,13.90
2018-05-14T20:45:31.150Z,13.90
2018-05-14T20:47:57.498Z,13.80
2018-05-14T20:50:23.831Z,13.70
2018-05-14T20:52:50.107Z,13.70
2018-05-14T20:55:16.421Z,13.70
2018-05-14T20:57:43.484Z,13.60
2018-05-14T21:00:09.857Z,13.60
2018-05-14T21:02:36.213Z,13.50
2018-05-14T21:05:02.535Z,13.50
2018-05-14T21:07:28.959Z,13.40
2018-05-14T21:09:55.280Z,13.40
2018-05-14T21:12:21.608Z,13.30
2018-05-14T21:14:47.924Z,13.30
2018-05-14T21:17:14.227Z,13.30
2018-05-14T21:19:40.578Z,13.20
2018-05-14T21:22:06.909Z,13.20
2018-05-14T21:24:33.212Z,13.10
2018-05-14T21:27:00.332Z,13.10
2018-05-14T21:29:26.619Z,13.00
2018-05-14T21:31:52.963Z,13.10
2018-05-14T21:34:19.341Z,13.10
2018-05-14T21:36:45.674Z,13.00
2018-05-14T21:39:11.960Z,13.00
2018-05-14T21:41:38.319Z,13.00
2018-05-14T21:44:04.659Z,13.00
2018-05-14T21:46:30.991Z,13.00
2018-05-14T21:48:58.064Z,13.00
2018-05-14T21:51:39.317Z,12.90
2018-05-14T21:54:26.682Z,13.00
2018-05-14T21:56:53.821Z,12.90
2018-05-14T21:59:20.167Z,12.90
2018-05-14T22:01:52.674Z,13.00
2018-05-14T22:04:19.000Z,13.00
2018-05-14T22:06:45.380Z,12.90
2018-05-14T22:09:11.767Z,13.00
2018-05-14T22:11:38.109Z,13.00
2018-05-14T22:14:04.398Z,13.00
2018-05-14T22:16:30.707Z,13.00
2018-05-14T22:18:57.012Z,13.00
2018-05-14T22:21:23.321Z,13.00
2018-05-14T22:23:49.689Z,12.90
2018-05-14T22:26:16.000Z,12.90
2018-05-14T22:28:42.355Z,12.90
2018-05-14T22:31:08.667Z,12.90
2018-05-14T22:33:34.995Z,12.90
2018-05-14T22:36:01.292Z,13.00
2018-05-14T22:38:28.306Z,12.90
2018-05-14T22:40:54.628Z,12.90
2018-05-14T22:43:20.936Z,12.90
2018-05-14T22:45:47.333Z,12.90
2018-05-14T22:48:15.172Z,12.90
2018-05-14T22:50:41.489Z,12.90
2018-05-14T22:53:07.796Z,12.90
2018-05-14T22:55:36.098Z,12.90
2018-05-14T22:58:02.445Z,12.80
2018-05-14T23:00:30.261Z,12.80
2018-05-14T23:02:56.589Z,12.80
2018-05-14T23:05:22.902Z,12.80
2018-05-14T23:07:49.220Z,12.70
2018-05-14T23:10:16.302Z,12.60
2018-05-14T23:12:42.641Z,12.60
2018-05-14T23:15:08.940Z,12.60
2018-05-14T23:17:35.959Z,12.40
2018-05-14T23:20:02.270Z,12.40
2018-05-14T23:22:39.776Z,12.40
2018-05-14T23:25:06.106Z,12.30
2018-05-14T23:27:32.407Z,12.30
2018-05-14T23:29:58.709Z,12.20
2018-05-14T23:32:25.720Z,12.20
2018-05-14T23:34:52.035Z,12.10
2018-05-14T23:37:18.327Z,12.10
2018-05-14T23:39:45.361Z,12.00
2018-05-14T23:42:11.641Z,12.00
2018-05-14T23:44:37.972Z,12.10
2018-05-14T23:47:04.311Z,12.00
2018-05-14T23:49:30.615Z,12.00
2018-05-14T23:51:56.900Z,12.00
2018-05-14T23:54:23.963Z,11.90
2018-05-14T23:56:51.007Z,11.80
2018-05-14T23:59:17.386Z,11.80
